createdAt,value
2019-04-07T00:00:09.038Z,93.26
2019-04-07T00:02:37.454Z,91.77
2019-04-07T00:05:13.618Z,91.97
2019-04-07T00:07:37.843Z,92.27
2019-04-07T00:10:09.174Z,92.88
2019-04-07T00:12:38.146Z,92.96
2019-04-07T00:15:06.994Z,93.12
2019-04-07T00:17:36.199Z,91.02
2019-04-07T00:20:07.134Z,92.52
2019-04-07T00:22:35.559Z,93.27
2019-04-07T00:25:05.197Z,91.92
2019-04-07T00:27:33.692Z,91.19
2019-04-07T00:30:02.116Z,90.72
2019-04-07T00:32:30.559Z,91.76
2019-04-07T00:34:58.916Z,91.08
2019-04-07T00:37:27.383Z,91.32
2019-04-07T00:39:55.730Z,91.09
2019-04-07T00:42:24.698Z,90.23
2019-04-07T00:44:53.287Z,89.93
2019-04-07T00:47:21.901Z,90.91
2019-04-07T00:49:50.242Z,91.68
2019-04-07T00:52:25.380Z,90.16
2019-04-07T00:54:53.732Z,90.03
2019-04-07T00:57:22.178Z,90.69
2019-04-07T00:59:50.613Z,90.18
2019-04-07T01:02:19.114Z,90.73
2019-04-07T01:04:47.532Z,92.04
2019-04-07T01:07:15.981Z,92.06
2019-04-07T01:09:44.341Z,90.94
2019-04-07T01:12:12.854Z,91.27
2019-04-07T01:14:41.761Z,93.02
2019-04-07T01:17:10.306Z,92.68
2019-04-07T01:19:38.718Z,90.60
2019-04-07T01:22:07.094Z,89.90
2019-04-07T01:24:35.441Z,91.75
2019-04-07T01:27:04.015Z,92.84
2019-04-07T01:29:33.178Z,91.77
2019-04-07T01:32:01.588Z,91.02
2019-04-07T01:34:30.379Z,91.05
2019-04-07T01:36:58.797Z,92.33
2019-04-07T01:39:27.334Z,92.34
2019-04-07T01:41:57.397Z,91.50
2019-04-07T01:44:27.664Z,89.25
2019-04-07T01:46:58.583Z,88.59
2019-04-07T01:49:45.146Z,88.41
2019-04-07T01:52:18.307Z,89.34
2019-04-07T01:54:51.011Z,89.86
2019-04-07T01:57:23.724Z,91.02
2019-04-07T01:59:59.745Z,91.16
2019-04-07T02:02:36.619Z,92.85
2019-04-07T02:05:14.460Z,92.49
2019-04-07T02:07:56.553Z,91.30
2019-04-07T02:10:44.573Z,92.13
2019-04-07T02:13:23.851Z,93.68
2019-04-07T02:16:03.746Z,92.67
2019-04-07T02:18:36.847Z,91.42
2019-04-07T02:21:07.180Z,91.32
2019-04-07T02:23:37.289Z,91.69
2019-04-07T02:26:13.606Z,91.14
2019-04-07T02:28:46.260Z,93.14
2019-04-07T02:31:17.189Z,91.12
2019-04-07T02:33:53.003Z,91.49
2019-04-07T02:36:31.363Z,94.37
2019-04-07T02:39:06.012Z,94.15
2019-04-07T02:41:38.393Z,92.66
2019-04-07T02:44:09.304Z,91.74
2019-04-07T02:46:54.742Z,91.72
2019-04-07T02:49:24.968Z,91.21
2019-04-07T02:52:11.520Z,90.78
2019-04-07T02:54:42.874Z,89.21
2019-04-07T02:57:22.085Z,89.26
2019-04-07T02:59:52.369Z,89.75
2019-04-07T03:02:41.163Z,89.73
2019-04-07T03:05:17.338Z,89.93
2019-04-07T03:07:56.465Z,91.25
2019-04-07T03:10:33.403Z,91.12
2019-04-07T03:13:18.414Z,92.98
2019-04-07T03:15:48.501Z,89.03
2019-04-07T03:18:27.397Z,86.68
2019-04-07T03:21:09.801Z,91.15
2019-04-07T03:23:51.808Z,93.98
2019-04-07T03:26:37.947Z,93.42
2019-04-07T03:29:14.105Z,92.09
2019-04-07T03:31:51.500Z,91.29
2019-04-07T03:34:30.170Z,90.48
2019-04-07T03:37:19.121Z,91.38
2019-04-07T03:39:51.274Z,93.04
2019-04-07T03:42:34.322Z,89.25
2019-04-07T03:45:04.501Z,88.06
2019-04-07T03:47:50.115Z,91.20
2019-04-07T03:50:20.495Z,90.01
2019-04-07T03:52:56.797Z,89.06
2019-04-07T03:55:28.137Z,88.78
2019-04-07T03:58:16.651Z,89.80
2019-04-07T04:01:05.287Z,89.30
2019-04-07T04:03:51.668Z,87.09
2019-04-07T04:06:30.547Z,90.64
2019-04-07T04:09:06.330Z,90.36
2019-04-07T04:11:39.496Z,89.00
2019-04-07T04:14:09.722Z,88.90
2019-04-07T04:16:40.408Z,88.60
2019-04-07T04:19:08.864Z,87.94
2019-04-07T04:21:37.994Z,89.35
2019-04-07T04:24:06.716Z,89.24
2019-04-07T04:26:35.874Z,89.19
2019-04-07T04:29:04.488Z,88.83
2019-04-07T04:31:33.776Z,88.40
2019-04-07T04:34:02.267Z,90.27
2019-04-07T04:36:31.543Z,91.06
2019-04-07T04:39:00.584Z,90.51
2019-04-07T04:41:29.435Z,90.30
2019-04-07T04:43:58.019Z,90.55
2019-04-07T04:46:26.514Z,88.66
2019-04-07T04:48:55.499Z,88.48
2019-04-07T04:51:24.210Z,88.14
2019-04-07T04:53:52.553Z,87.55
2019-04-07T04:56:20.934Z,88.50
2019-04-07T04:58:50.726Z,88.61
2019-04-07T05:01:19.184Z,89.99
2019-04-07T05:03:47.542Z,90.42
2019-04-07T05:06:15.977Z,88.57
2019-04-07T05:08:44.442Z,88.40
2019-04-07T05:11:13.406Z,89.56
2019-04-07T05:13:42.164Z,90.28
2019-04-07T05:16:12.895Z,89.70
2019-04-07T05:18:41.597Z,89.74
2019-04-07T05:21:10.528Z,89.36
2019-04-07T05:23:39.514Z,89.26
2019-04-07T05:26:08.506Z,88.67
2019-04-07T05:28:37.899Z,89.56
2019-04-07T05:31:07.255Z,89.53
2019-04-07T05:33:35.676Z,89.85
2019-04-07T05:36:04.810Z,89.39
2019-04-07T05:38:33.279Z,89.26
2019-04-07T05:41:02.923Z,89.33
2019-04-07T05:43:31.544Z,89.21
2019-04-07T05:46:00.683Z,89.55
2019-04-07T05:48:29.216Z,90.27
2019-04-07T05:50:59.999Z,88.38
2019-04-07T05:53:28.693Z,89.87
2019-04-07T05:55:57.962Z,91.10
2019-04-07T05:58:26.824Z,91.55
2019-04-07T06:00:57.020Z,91.75
2019-04-07T06:03:27.608Z,93.22
2019-04-07T06:05:57.876Z,93.01
2019-04-07T06:08:36.735Z,92.46
2019-04-07T06:11:04.158Z,91.74
2019-04-07T06:13:33.086Z,92.03
2019-04-07T06:16:02.055Z,91.75
2019-04-07T06:18:36.869Z,91.35
2019-04-07T06:21:06.076Z,92.80
2019-04-07T06:23:36.426Z,93.43
2019-04-07T06:26:09.325Z,94.21
2019-04-07T06:28:36.106Z,93.41
2019-04-07T06:31:06.609Z,93.27
2019-04-07T06:33:38.126Z,92.67
2019-04-07T06:36:05.429Z,92.49
2019-04-07T06:38:35.918Z,94.19
2019-04-07T06:41:04.444Z,93.61
2019-04-07T06:43:44.137Z,95.01
2019-04-07T06:46:14.129Z,94.49
2019-04-07T06:49:02.665Z,95.30
2019-04-07T06:51:49.011Z,95.41
2019-04-07T06:54:32.006Z,94.88
2019-04-07T06:57:18.518Z,93.90
2019-04-07T06:59:49.128Z,95.53
2019-04-07T07:02:35.875Z,95.90
2019-04-07T07:05:18.977Z,96.03
2019-04-07T07:07:54.822Z,96.13
2019-04-07T07:10:37.141Z,97.30
2019-04-07T07:13:11.018Z,97.93
2019-04-07T07:15:55.180Z,98.25
2019-04-07T07:18:28.345Z,98.51
2019-04-07T07:21:01.777Z,98.29
2019-04-07T07:23:30.951Z,97.12
2019-04-07T07:26:02.907Z,98.26
2019-04-07T07:28:29.602Z,99.00
2019-04-07T07:30:58.893Z,99.67
2019-04-07T07:33:28.003Z,99.33
2019-04-07T07:35:57.030Z,98.97
2019-04-07T07:38:27.017Z,98.35
2019-04-07T07:40:55.930Z,98.76
2019-04-07T07:43:27.969Z,99.20
2019-04-07T07:45:54.603Z,98.90
2019-04-07T07:48:26.187Z,97.54
2019-04-07T07:50:53.746Z,97.56
2019-04-07T07:53:26.063Z,97.94
2019-04-07T07:55:55.688Z,97.95
2019-04-07T07:58:27.912Z,97.37
2019-04-07T08:00:54.472Z,96.26
2019-04-07T08:03:23.030Z,96.60
2019-04-07T08:05:52.265Z,97.45
2019-04-07T08:08:21.209Z,97.69
2019-04-07T08:10:50.758Z,97.46
2019-04-07T08:13:21.281Z,97.34
2019-04-07T08:15:50.376Z,97.60
2019-04-07T08:18:20.455Z,96.92
2019-04-07T08:20:49.139Z,97.13
2019-04-07T08:23:17.512Z,97.81
2019-04-07T08:25:46.632Z,97.69
2019-04-07T08:28:15.720Z,96.41
2019-04-07T08:30:47.490Z,95.75
2019-04-07T08:33:14.880Z,95.74
2019-04-07T08:35:43.559Z,95.16
2019-04-07T08:38:12.317Z,95.62
2019-04-07T08:40:41.675Z,97.05
2019-04-07T08:43:12.567Z,97.45
2019-04-07T08:45:41.424Z,98.37
2019-04-07T08:48:10.878Z,97.72
2019-04-07T08:50:39.894Z,97.43
2019-04-07T08:53:10.505Z,97.01
2019-04-07T08:55:39.171Z,96.94
2019-04-07T08:58:07.544Z,95.73
2019-04-07T09:00:38.721Z,95.33
2019-04-07T09:03:11.458Z,96.21
2019-04-07T09:05:37.294Z,95.54
2019-04-07T09:08:07.302Z,95.59
2019-04-07T09:10:44.135Z,96.08
2019-04-07T09:13:13.124Z,95.15
2019-04-07T09:15:44.691Z,96.62
2019-04-07T09:18:16.128Z,95.48
2019-04-07T09:21:03.365Z,95.71
2019-04-07T09:23:33.440Z,95.13
2019-04-07T09:26:16.076Z,97.23
2019-04-07T09:28:46.068Z,96.56
2019-04-07T09:31:16.428Z,95.60
2019-04-07T09:33:48.991Z,94.94
2019-04-07T09:36:22.295Z,94.90
2019-04-07T09:38:59.322Z,96.01
2019-04-07T09:41:36.433Z,94.23
2019-04-07T09:44:06.637Z,94.35
2019-04-07T09:46:53.094Z,94.60
2019-04-07T09:49:25.690Z,95.18
2019-04-07T09:51:58.687Z,93.98
2019-04-07T09:54:28.678Z,92.56
2019-04-07T09:57:06.397Z,91.20
2019-04-07T09:59:42.858Z,92.51
2019-04-07T10:02:33.579Z,91.36
2019-04-07T10:05:17.763Z,89.90
2019-04-07T10:08:04.386Z,91.11
2019-04-07T10:10:43.739Z,91.96
2019-04-07T10:13:22.862Z,92.50
2019-04-07T10:16:02.352Z,90.59
2019-04-07T10:18:38.647Z,91.76
2019-04-07T10:21:25.257Z,91.62
2019-04-07T10:23:59.251Z,91.20
2019-04-07T10:26:45.957Z,92.06
2019-04-07T10:29:29.351Z,91.10
2019-04-07T10:32:10.032Z,89.78
2019-04-07T10:34:46.210Z,89.72
2019-04-07T10:37:16.868Z,90.82
2019-04-07T10:40:05.448Z,91.06
2019-04-07T10:42:35.883Z,90.92
2019-04-07T10:45:17.408Z,91.18
2019-04-07T10:47:50.273Z,90.32
2019-04-07T10:50:38.176Z,89.65
2019-04-07T10:53:08.336Z,90.23
2019-04-07T10:55:44.189Z,90.82
2019-04-07T10:58:30.173Z,91.20
2019-04-07T11:01:16.763Z,91.50
2019-04-07T11:03:46.968Z,92.71
2019-04-07T11:06:18.111Z,91.54
2019-04-07T11:09:04.825Z,91.37
2019-04-07T11:11:34.787Z,90.86
2019-04-07T11:14:05.743Z,91.16
2019-04-07T11:16:42.153Z,91.46
2019-04-07T11:19:17.759Z,91.56
2019-04-07T11:21:53.777Z,88.83
2019-04-07T11:24:32.822Z,88.54
2019-04-07T11:27:19.181Z,87.48
2019-04-07T11:29:51.834Z,87.39
2019-04-07T11:32:24.171Z,87.45
2019-04-07T11:34:57.455Z,84.25
2019-04-07T11:37:27.693Z,83.54
2019-04-07T11:40:04.705Z,84.09
2019-04-07T11:42:41.537Z,85.05
2019-04-07T11:45:31.345Z,84.70
2019-04-07T11:48:08.390Z,85.79
2019-04-07T11:50:45.022Z,84.92
2019-04-07T11:53:15.650Z,82.62
2019-04-07T11:56:06.964Z,83.21
2019-04-07T11:58:53.078Z,84.24
2019-04-07T12:01:39.634Z,83.98
2019-04-07T12:04:27.051Z,83.02
2019-04-07T12:07:03.555Z,84.52
2019-04-07T12:09:39.667Z,83.55
2019-04-07T12:12:12.668Z,83.18
2019-04-07T12:14:58.887Z,83.45
2019-04-07T12:17:42.599Z,83.61
2019-04-07T12:20:13.934Z,84.16
2019-04-07T12:22:53.890Z,85.02
2019-04-07T12:25:24.360Z,86.19
2019-04-07T12:28:00.238Z,86.95
2019-04-07T12:30:33.736Z,87.08
2019-04-07T12:33:19.123Z,85.36
2019-04-07T12:35:51.710Z,86.57
2019-04-07T12:38:25.260Z,87.32
2019-04-07T12:41:16.654Z,88.45
2019-04-07T12:43:42.800Z,88.30
2019-04-07T12:46:21.018Z,88.87
2019-04-07T12:48:51.484Z,87.98
2019-04-07T12:51:22.393Z,87.60
2019-04-07T12:54:09.233Z,87.96
2019-04-07T12:56:48.889Z,88.75
2019-04-07T12:59:19.330Z,87.67
2019-04-07T13:01:52.169Z,86.66
2019-04-07T13:04:22.198Z,88.48
2019-04-07T13:07:08.939Z,87.14
2019-04-07T13:09:39.488Z,88.07
2019-04-07T13:12:20.405Z,88.82
2019-04-07T13:14:47.612Z,89.98
2019-04-07T13:17:17.675Z,89.66
2019-04-07T13:20:02.575Z,90.20
2019-04-07T13:22:34.403Z,89.14
2019-04-07T13:25:14.266Z,89.64
2019-04-07T13:28:00.455Z,89.80
2019-04-07T13:30:43.293Z,90.72
2019-04-07T13:33:20.083Z,90.90
2019-04-07T13:35:48.842Z,89.94
2019-04-07T13:38:19.015Z,90.54
2019-04-07T13:41:07.333Z,91.00
2019-04-07T13:43:41.039Z,90.65
2019-04-07T13:46:22.253Z,90.66
2019-04-07T13:49:12.811Z,90.71
2019-04-07T13:54:43.688Z,88.78
2019-04-07T13:57:26.008Z,89.24
2019-04-07T14:00:13.404Z,89.86
2019-04-07T14:02:53.340Z,91.07
2019-04-07T14:05:33.042Z,90.91
2019-04-07T14:08:04.059Z,89.91
2019-04-07T14:10:37.020Z,88.07
2019-04-07T14:13:09.419Z,87.41
2019-04-07T14:15:42.037Z,86.17
2019-04-07T14:18:12.366Z,85.01
2019-04-07T14:20:51.757Z,82.82
2019-04-07T14:23:25.146Z,83.35
2019-04-07T14:25:58.021Z,86.01
2019-04-07T14:28:29.648Z,84.91
2019-04-07T14:31:07.597Z,83.96
2019-04-07T14:33:54.411Z,83.65
2019-04-07T14:36:30.163Z,83.31
2019-04-07T14:39:00.226Z,83.47
2019-04-07T14:41:31.179Z,85.44
2019-04-07T14:44:04.189Z,82.65
2019-04-07T14:46:40.204Z,80.34
2019-04-07T14:49:27.881Z,83.31
2019-04-07T14:51:58.181Z,83.44
2019-04-07T14:54:30.852Z,82.04
2019-04-07T14:57:17.020Z,82.18
2019-04-07T14:59:52.087Z,84.86
2019-04-07T15:02:20.214Z,83.39
2019-04-07T15:04:50.954Z,80.34
2019-04-07T15:07:33.297Z,79.56
2019-04-07T15:10:09.525Z,78.66
2019-04-07T15:12:40.342Z,82.48
2019-04-07T15:15:11.737Z,81.91
2019-04-07T15:17:40.391Z,83.41
2019-04-07T15:20:11.715Z,84.62
2019-04-07T15:22:39.426Z,83.25
2019-04-07T15:25:10.239Z,83.70
2019-04-07T15:27:38.817Z,83.74
2019-04-07T15:30:13.221Z,85.31
2019-04-07T15:32:39.510Z,83.01
2019-04-07T15:35:29.653Z,82.40
2019-04-07T15:37:59.092Z,82.06
2019-04-07T15:40:28.130Z,83.06
2019-04-07T15:42:56.894Z,83.98
2019-04-07T15:45:25.426Z,83.63
2019-04-07T15:47:54.077Z,85.11
2019-04-07T15:50:24.510Z,84.68
2019-04-07T15:52:54.181Z,83.68
2019-04-07T15:55:26.331Z,83.96
2019-04-07T15:57:54.890Z,84.09
2019-04-07T16:00:23.769Z,86.18
2019-04-07T16:02:53.507Z,85.89
2019-04-07T16:05:24.139Z,88.53
2019-04-07T16:07:53.602Z,86.33
2019-04-07T16:10:23.796Z,85.82
2019-04-07T16:12:53.854Z,84.38
2019-04-07T16:15:23.446Z,84.85
2019-04-07T16:17:53.602Z,85.25
2019-04-07T16:20:26.299Z,84.10
2019-04-07T16:22:55.781Z,84.71
2019-04-07T16:25:27.628Z,84.67
2019-04-07T16:27:54.836Z,84.89
2019-04-07T16:30:23.467Z,84.84
2019-04-07T16:32:52.418Z,84.60
2019-04-07T16:35:21.090Z,85.56
2019-04-07T16:37:52.101Z,86.02
2019-04-07T16:40:20.665Z,86.61
2019-04-07T16:43:04.808Z,87.58
2019-04-07T16:45:19.275Z,86.84
2019-04-07T16:47:47.866Z,86.64
2019-04-07T16:50:18.904Z,87.33
2019-04-07T16:52:47.121Z,87.68
2019-04-07T16:55:35.128Z,88.57
2019-04-07T16:58:03.648Z,88.66
2019-04-07T17:00:32.457Z,88.31
2019-04-07T17:03:01.302Z,88.83
2019-04-07T17:05:32.210Z,90.31
2019-04-07T17:08:01.657Z,93.07
2019-04-07T17:10:33.884Z,91.10
2019-04-07T17:13:02.818Z,90.89
2019-04-07T17:15:31.626Z,90.43
2019-04-07T17:18:00.284Z,90.07
2019-04-07T17:20:33.392Z,90.67
2019-04-07T17:22:59.003Z,88.99
2019-04-07T17:25:27.385Z,91.30
2019-04-07T17:27:58.688Z,93.27
2019-04-07T17:30:26.914Z,93.96
2019-04-07T17:32:56.605Z,94.57
2019-04-07T17:35:25.088Z,91.01
2019-04-07T17:37:56.567Z,92.46
2019-04-07T17:40:26.705Z,94.17
2019-04-07T17:42:57.736Z,93.89
2019-04-07T17:45:33.693Z,96.29
2019-04-07T17:48:20.249Z,96.82
2019-04-07T17:51:08.415Z,93.49
2019-04-07T17:53:38.360Z,93.90
2019-04-07T17:56:17.909Z,89.72
2019-04-07T17:58:48.531Z,88.01
2019-04-07T18:01:31.280Z,83.08
2019-04-07T18:04:17.269Z,82.99
2019-04-07T18:07:02.094Z,82.48
2019-04-07T18:09:30.958Z,84.22
2019-04-07T18:12:19.815Z,85.26
2019-04-07T18:14:57.529Z,85.97
2019-04-07T18:17:28.589Z,85.57
2019-04-07T18:20:05.256Z,84.42
2019-04-07T18:22:39.098Z,83.56
2019-04-07T18:25:16.181Z,81.80
2019-04-07T18:27:48.830Z,81.15
2019-04-07T18:30:24.759Z,81.48
2019-04-07T18:32:57.626Z,85.18
2019-04-07T18:35:34.757Z,87.25
2019-04-07T18:38:11.416Z,87.90
2019-04-07T18:41:00.398Z,91.60
2019-04-07T18:43:49.095Z,92.40
2019-04-07T18:46:17.853Z,90.53
2019-04-07T18:48:50.927Z,92.41
2019-04-07T18:51:37.224Z,95.82
2019-04-07T18:54:09.961Z,96.62
2019-04-07T18:56:55.878Z,94.15
2019-04-07T18:59:25.960Z,91.83
2019-04-07T19:02:14.313Z,92.19
2019-04-07T19:04:58.186Z,92.30
2019-04-07T19:07:27.211Z,93.23
2019-04-07T19:10:19.870Z,94.24
2019-04-07T19:13:07.807Z,94.85
2019-04-07T19:15:40.867Z,94.44
2019-04-07T19:18:23.665Z,94.11
2019-04-07T19:20:53.715Z,93.23
2019-04-07T19:23:37.576Z,92.67
2019-04-07T19:26:10.675Z,93.01
2019-04-07T19:28:58.074Z,94.59
2019-04-07T19:31:48.041Z,95.35
2019-04-07T19:34:32.853Z,95.56
2019-04-07T19:37:06.022Z,95.54
2019-04-07T19:39:55.224Z,95.97
2019-04-07T19:42:29.848Z,96.34
2019-04-07T19:45:15.777Z,97.41
2019-04-07T19:47:59.327Z,97.04
2019-04-07T19:50:36.985Z,97.43
2019-04-07T19:53:20.331Z,96.76
2019-04-07T19:55:58.162Z,96.47
2019-04-07T19:58:40.947Z,96.28
2019-04-07T20:01:23.393Z,96.24
2019-04-07T20:03:54.619Z,96.76
2019-04-07T20:06:27.937Z,97.72
2019-04-07T20:09:05.170Z,100.00
2019-04-07T20:11:51.455Z,100.00
2019-04-07T20:14:30.601Z,100.00
2019-04-07T20:17:04.181Z,100.00
2019-04-07T20:19:41.374Z,100.00
2019-04-07T20:22:11.599Z,99.89
2019-04-07T20:24:47.543Z,99.89
2019-04-07T20:27:16.114Z,100.00
2019-04-07T20:29:49.636Z,100.00
2019-04-07T20:32:35.290Z,100.00
2019-04-07T20:35:10.993Z,100.00
2019-04-07T20:37:41.124Z,100.00
2019-04-07T20:40:27.524Z,99.98
2019-04-07T20:42:58.471Z,100.00
2019-04-07T20:45:28.926Z,100.00
2019-04-07T20:48:01.696Z,100.00
2019-04-07T20:50:35.492Z,100.00
2019-04-07T20:53:13.836Z,100.00
2019-04-07T20:55:43.895Z,100.00
2019-04-07T20:58:23.959Z,100.00
2019-04-07T21:01:11.258Z,100.00
2019-04-07T21:03:40.249Z,100.00
2019-04-07T21:06:13.501Z,100.00
2019-04-07T21:09:02.837Z,100.00
2019-04-07T21:11:42.874Z,100.00
2019-04-07T21:14:15.519Z,100.00
2019-04-07T21:16:46.456Z,100.00
2019-04-07T21:19:37.461Z,100.00
2019-04-07T21:22:18.706Z,100.00
2019-04-07T21:25:05.226Z,100.00
2019-04-07T21:27:49.085Z,100.00
2019-04-07T21:30:20.739Z,100.00
2019-04-07T21:32:57.292Z,100.00
2019-04-07T21:35:44.774Z,100.00
2019-04-07T21:38:24.250Z,100.00
2019-04-07T21:41:12.238Z,100.00
2019-04-07T21:43:44.683Z,100.00
2019-04-07T21:46:31.153Z,100.00
2019-04-07T21:49:17.930Z,100.00
2019-04-07T21:51:57.390Z,100.00
2019-04-07T21:54:39.784Z,100.00
2019-04-07T21:57:09.977Z,100.00
2019-04-07T21:59:40.207Z,100.00
2019-04-07T22:02:12.174Z,100.00
2019-04-07T22:04:58.671Z,100.00
2019-04-07T22:07:33.239Z,100.00
2019-04-07T22:10:06.207Z,100.00
2019-04-07T22:12:35.671Z,100.00
2019-04-07T22:15:11.661Z,100.00
2019-04-07T22:17:39.379Z,100.00
2019-04-07T22:20:12.624Z,100.00
2019-04-07T22:22:42.962Z,100.00
2019-04-07T22:25:12.297Z,100.00
2019-04-07T22:27:41.053Z,100.00
2019-04-07T22:30:11.776Z,100.00
2019-04-07T22:32:40.736Z,100.00
2019-04-07T22:35:10.685Z,100.00
2019-04-07T22:37:39.946Z,100.00
2019-04-07T22:40:15.502Z,100.00
2019-04-07T22:42:45.976Z,100.00
2019-04-07T22:45:15.628Z,100.00
2019-04-07T22:47:46.694Z,100.00
2019-04-07T22:50:15.472Z,100.00
2019-04-07T22:52:49.194Z,100.00
2019-04-07T22:55:16.509Z,100.00
2019-04-07T22:57:45.507Z,100.00
2019-04-07T23:00:19.122Z,100.00
2019-04-07T23:02:48.621Z,100.00
2019-04-07T23:05:17.226Z,100.00
2019-04-07T23:07:45.948Z,100.00
2019-04-07T23:10:16.007Z,100.00
2019-04-07T23:12:44.553Z,100.00
2019-04-07T23:15:13.468Z,100.00
2019-04-07T23:17:41.906Z,100.00
2019-04-07T23:20:10.885Z,100.00
2019-04-07T23:22:42.410Z,100.00
2019-04-07T23:25:11.999Z,100.00
2019-04-07T23:27:41.590Z,100.00
2019-04-07T23:30:12.283Z,100.00
2019-04-07T23:32:43.729Z,100.00
2019-04-07T23:35:14.534Z,100.00
2019-04-07T23:37:43.239Z,100.00
2019-04-07T23:40:11.847Z,100.00
2019-04-07T23:42:40.328Z,100.00
2019-04-07T23:45:09.108Z,100.00
2019-04-07T23:47:37.461Z,100.00
2019-04-07T23:50:07.489Z,100.00
2019-04-07T23:52:36.900Z,100.00
2019-04-07T23:55:05.343Z,100.00
2019-04-07T23:57:33.773Z,100.00
